M I D A S
Marine Information and Data Acquisition System
Tripno 613 of the Zeeleeuw from 2003-12-09 07:40:17 to 2003-12-09 16:15:26
Back to CruiseResearch ActivitiesStationsMapUnderway DataData graphs

EquipmentUnitsComment
TimeDGPSUTC
LatitudeDGPSDM.mWGS84
LongitudeDGPSDM.mWGS84
HeadingGyrodeg 
SOGDGPSknotsSpeed over ground
COGDGPSdegCourse over ground
DepthEcho soundermeters200 kHz
Missing or incorrect values are displayed as -999
Navigation data collected by the RV Zeeleeuw from 2003-12-09 07:40:17 to 2003-12-09 16:15:26
Time Latitude Longitude Heading SOG COG Depth
2003-12-09 07:41:20 51°13.546 2°56.233 350.4 0.4 10 7.3
2003-12-09 07:42:20 51°13.528 2°56.242 342.8 1.1 157 -999
2003-12-09 07:43:19 51°13.531 2°56.238 322.2 1.6 317 9.3
2003-12-09 07:44:19 51°13.545 2°56.203 295.7 1.7 292 8.6
2003-12-09 07:45:19 51°13.558 2°56.156 295.6 2 295 9.4
2003-12-09 07:46:19 51°13.571 2°56.106 297.1 2.1 293 9.4
2003-12-09 07:47:20 51°13.584 2°56.061 301 1.5 294 9.4
2003-12-09 07:48:20 51°13.596 2°56.025 304.8 1.4 301 9.5
2003-12-09 07:49:19 51°13.606 2°56.004 312.2 0.6 317 9.3
2003-12-09 07:50:20 51°13.608 2°56 318.1 0.1 291 9.6
2003-12-09 07:51:20 51°13.609 2°55.995 321.2 0.2 278 9.5
2003-12-09 07:52:20 51°13.612 2°55.989 325.5 0.5 317 9.6
2003-12-09 07:53:20 51°13.624 2°55.967 315.5 1.6 310 9.7
2003-12-09 07:54:19 51°13.648 2°55.916 310 3 305 9.5
2003-12-09 07:55:19 51°13.694 2°55.814 309.9 5.8 306 10
2003-12-09 07:56:20 51°13.771 2°55.678 324.2 7.3 320 9.5
2003-12-09 07:57:20 51°13.883 2°55.587 341.8 7.6 337 9.3
2003-12-09 07:58:20 51°14.001 2°55.505 340.9 7.9 337 9.1
2003-12-09 07:59:20 51°14.123 2°55.417 340.5 8.6 335 9.1
2003-12-09 08:00:19 51°14.246 2°55.288 321.5 9.2 315 9.5
2003-12-09 08:01:19 51°14.351 2°55.088 313.2 10.5 310 9.6
2003-12-09 08:02:18 51°14.5 2°54.924 333.8 11.6 324 8.7
2003-12-09 08:03:18 51°14.645 2°54.702 329 12.3 319 8.7
2003-12-09 08:04:18 51°14.806 2°54.479 332.8 13.1 325 8.6
2003-12-09 08:05:20 51°14.984 2°54.262 326.4 12.9 316 -999
2003-12-09 08:06:18 51°15.144 2°54.051 344.1 12.8 336 8
2003-12-09 08:07:20 51°15.355 2°53.959 4.5 12.7 358 8.7
2003-12-09 08:08:19 51°15.564 2°53.939 2.1 13 353 9.3
2003-12-09 08:09:19 51°15.778 2°53.96 16.7 12.8 10 10
2003-12-09 08:10:20 51°15.982 2°54.06 29.7 12.6 24 10.4
2003-12-09 08:11:20 51°16.14 2°54.175 38.4 8.5 31 10.9
2003-12-09 08:12:19 51°16.223 2°54.261 45.9 4.4 38 11
2003-12-09 08:13:20 51°16.254 2°54.325 66.7 2 67 11
2003-12-09 08:14:20 51°16.25 2°54.325 87 0.9 231 11
2003-12-09 08:15:20 51°16.241 2°54.303 89.2 1.1 235 11
2003-12-09 08:16:37 51°16.228 2°54.271 93.4 1.1 234 11.1
2003-12-09 08:17:37 51°16.219 2°54.251 91.4 0.9 219 11.1
2003-12-09 08:18:38 51°16.21 2°54.24 87.1 0.6 208 11.1
2003-12-09 08:19:38 51°16.202 2°54.237 80.8 0.4 178 11.1
2003-12-09 08:20:38 51°16.198 2°54.238 70.1 0.1 105 11.1
2003-12-09 08:21:36 51°16.199 2°54.243 63.7 0.3 52 11.1
2003-12-09 08:22:38 51°16.204 2°54.253 64.4 0.9 52 11.1
2003-12-09 08:23:38 51°16.267 2°54.253 350.4 6.1 327 11.1
2003-12-09 08:24:37 51°16.35 2°54.045 312 12.2 303 11.1
2003-12-09 08:26:00 51°16.522 2°53.621 311 14.2 302 11.3
2003-12-09 08:27:00 51°16.66 2°53.319 318.3 13.9 310 10.9
2003-12-09 08:28:00 51°16.814 2°53.046 322.6 13.7 314 9.5
2003-12-09 08:29:00 51°16.958 2°52.782 319.5 13.5 312 8.8
2003-12-09 08:30:00 51°17.127 2°52.546 327.6 13.4 317 8.9
2003-12-09 08:31:00 51°17.295 2°52.304 327.8 13.8 317 9.7
2003-12-09 08:32:01 51°17.466 2°52.053 327.2 13.7 317 9.8
2003-12-09 08:33:00 51°17.63 2°51.81 327.4 13.6 317 9.7
2003-12-09 08:34:00 51°17.796 2°51.566 327.9 13.6 318 9.6
2003-12-09 08:35:00 51°17.965 2°51.317 327.7 13.9 317 10.3
2003-12-09 08:36:01 51°18.138 2°51.057 327.4 14 317 11.9
2003-12-09 08:37:01 51°18.299 2°50.894 353.4 10.1 346 12.8
2003-12-09 08:38:01 51°18.425 2°50.941 42.3 6 34 13.2
2003-12-09 08:39:01 51°18.487 2°50.996 38.8 3.2 27 13.5
2003-12-09 08:40:01 51°18.511 2°51.004 22.2 1 318 13.5
2003-12-09 08:41:01 51°18.521 2°50.982 19.8 1 304 13.6
2003-12-09 08:42:01 51°18.528 2°50.964 36.6 0.6 295 13.7
2003-12-09 08:43:01 51°18.529 2°50.953 52.9 0.4 258 13.7
2003-12-09 08:44:01 51°18.526 2°50.944 64.9 0.4 228 13.7
2003-12-09 08:45:01 51°18.52 2°50.937 76.3 0.5 214 13.8
2003-12-09 08:46:06 51°18.511 2°50.929 86.7 0.7 202 13.7
2003-12-09 08:47:05 51°18.501 2°50.923 88.1 0.7 202 13.7
2003-12-09 08:48:06 51°18.491 2°50.918 79.8 0.6 197 13.7
2003-12-09 08:49:12 51°18.506 2°50.941 38.5 4.2 19 13.7
2003-12-09 08:50:13 51°18.579 2°50.788 285.7 10.2 268 14.1
2003-12-09 08:51:13 51°18.452 2°50.541 210.6 13.7 206 13.9
2003-12-09 08:52:13 51°18.221 2°50.423 197.9 15 197 13.4
2003-12-09 08:53:12 51°17.986 2°50.306 197.9 15.1 197 12.8
2003-12-09 08:54:13 51°17.742 2°50.185 198.8 15.2 197 12.5
2003-12-09 08:55:13 51°17.504 2°50.067 198.4 15 196 11.8
2003-12-09 08:56:12 51°17.274 2°49.928 208 14.9 205 10.2
2003-12-09 08:57:13 51°17.046 2°49.76 207.9 15 204 9.4
2003-12-09 08:58:13 51°16.827 2°49.579 215.7 14.9 211 10
2003-12-09 08:59:13 51°16.607 2°49.374 216.5 15.3 213 13.1
2003-12-09 09:00:12 51°16.409 2°49.138 221.7 15 218 14.9
2003-12-09 09:01:13 51°16.208 2°48.892 221.1 14.9 217 14.1
2003-12-09 09:02:12 51°16.015 2°48.654 220.8 15 218 13.4
2003-12-09 09:03:12 51°15.817 2°48.416 220.5 14.8 217 12.2
2003-12-09 09:04:12 51°15.62 2°48.177 220.7 14.9 217 10.9
2003-12-09 09:05:13 51°15.42 2°47.941 219.5 14.6 216 9.9
2003-12-09 09:06:13 51°15.227 2°47.706 222.2 14.6 219 9.4
2003-12-09 09:07:11 51°15.044 2°47.469 223.7 14.8 221 10.1
2003-12-09 09:08:13 51°14.852 2°47.198 224.7 14.8 222 12.1
2003-12-09 09:09:11 51°14.674 2°46.942 224.2 14.9 222 12.8
2003-12-09 09:10:13 51°14.485 2°46.667 224.2 14.9 222 12.5
2003-12-09 09:11:12 51°14.305 2°46.41 225 14.8 223 11.7
2003-12-09 09:12:12 51°14.123 2°46.146 224.5 14.8 222 10.8
2003-12-09 09:13:12 51°13.937 2°45.894 221.3 14.6 219 9.2
2003-12-09 09:14:12 51°13.75 2°45.654 221.4 14.3 219 8.4
2003-12-09 09:15:12 51°13.558 2°45.43 216.8 14.4 215 9
2003-12-09 09:16:12 51°13.365 2°45.184 222.4 14.9 220 11
2003-12-09 09:17:12 51°13.178 2°44.931 222.2 14.7 220 11.8
2003-12-09 09:18:11 51°12.994 2°44.683 222.5 14.7 220 12.2
2003-12-09 09:19:13 51°12.8 2°44.424 221.5 14.8 220 12.3
2003-12-09 09:20:13 51°12.613 2°44.174 221.6 14.7 220 11.9
2003-12-09 09:21:13 51°12.428 2°43.925 221.5 14.6 220 11.4
2003-12-09 09:22:13 51°12.249 2°43.668 225.1 14.5 223 10.7
2003-12-09 09:23:12 51°12.075 2°43.411 224.2 14.6 222 9.8
2003-12-09 09:24:13 51°11.897 2°43.149 224.4 14.1 223 8.3
2003-12-09 09:25:13 51°11.719 2°42.895 225.8 14.6 224 9.1
2003-12-09 09:26:13 51°11.538 2°42.636 224.5 14.8 223 10.9
2003-12-09 09:27:11 51°11.365 2°42.382 224.3 14.5 222 11.5
2003-12-09 09:28:12 51°11.202 2°42.215 207.6 9.1 206 12.2
2003-12-09 09:29:10 51°11.103 2°42.179 177 3.9 181 12.5
2003-12-09 09:30:13 51°11.077 2°42.17 150.7 0.8 247 12.6
2003-12-09 09:31:13 51°11.072 2°42.152 163.4 0.7 243 12.7
2003-12-09 09:32:11 51°11.067 2°42.137 181.1 0.7 241 12.8
2003-12-09 09:33:13 51°11.061 2°42.121 198 0.7 241 12.7
2003-12-09 09:34:13 51°11.055 2°42.104 212.6 0.8 239 12.8
2003-12-09 09:35:13 51°11.049 2°42.086 224.9 0.8 242 12.8
2003-12-09 09:36:13 51°11.041 2°42.064 238.2 1 242 12.8
2003-12-09 09:37:13 51°11.034 2°42.036 254.2 1.2 245 12.9
2003-12-09 09:38:13 51°11.035 2°41.965 290.7 5.3 283 12.8
2003-12-09 09:39:12 51°11.015 2°41.715 257.4 12.4 253 12.5
2003-12-09 09:40:12 51°10.937 2°41.374 252.2 14.1 250 12.6
2003-12-09 09:41:13 51°10.853 2°41.016 251.8 14.3 250 12.8
2003-12-09 09:42:11 51°10.774 2°40.674 252.9 14.3 250 13.3
2003-12-09 09:43:10 51°10.693 2°40.323 252.5 14.3 250 13.8
2003-12-09 09:44:13 51°10.606 2°39.948 253 14.4 250 14.5
2003-12-09 09:45:13 51°10.529 2°39.586 252.9 14.4 251 15.1
2003-12-09 09:46:11 51°10.454 2°39.235 254 14.4 252 15.8
2003-12-09 09:47:11 51°10.391 2°38.867 258.8 14.4 256 16.7
2003-12-09 09:48:12 51°10.337 2°38.49 260.3 14.3 257 16.5
2003-12-09 09:49:13 51°10.282 2°38.116 259.9 14.2 258 17.3
2003-12-09 09:50:11 51°10.23 2°37.762 258.8 14.2 256 18.2
2003-12-09 09:51:13 51°10.174 2°37.382 258.5 14.3 256 18.5
2003-12-09 09:52:13 51°10.121 2°37.014 259.3 14.3 257 18.9
2003-12-09 09:53:13 51°10.083 2°36.639 266.2 14.3 264 18.6
2003-12-09 09:54:11 51°10.063 2°36.274 270.7 14.3 270 18.6
2003-12-09 09:55:13 51°10.129 2°35.907 305.7 13.9 304 14.9
2003-12-09 09:56:13 51°10.302 2°35.698 346.2 13.3 343 11.6
2003-12-09 09:57:10 51°10.509 2°35.685 19.2 13.3 18 11.1
2003-12-09 09:58:13 51°10.707 2°35.884 39.3 13.5 35 11.5
2003-12-09 09:59:13 51°10.893 2°36.091 39.5 13.6 35 11.9
2003-12-09 10:00:17 51°11.089 2°36.318 39.9 13.6 36 12.4
2003-12-09 10:01:18 51°11.275 2°36.536 40.1 13.6 36 12.6
2003-12-09 10:02:18 51°11.458 2°36.745 39.8 13.6 36 12.9
2003-12-09 10:03:23 51°11.656 2°36.973 39.9 13.6 35 13.2
2003-12-09 10:04:21 51°11.832 2°37.176 39.9 13.5 35 13.3
2003-12-09 10:05:21 51°12.02 2°37.376 38.1 13.5 34 13.1
2003-12-09 10:06:23 51°12.214 2°37.582 38.4 13.6 34 13.4
2003-12-09 10:07:23 51°12.401 2°37.78 38.4 13.6 33 13.6
2003-12-09 10:08:22 51°12.587 2°37.977 38.1 13.6 33 13.9
2003-12-09 10:09:21 51°12.78 2°38.154 33.8 13.6 28 14.2
2003-12-09 10:10:23 51°12.991 2°38.311 30.1 13.6 25 14.7
2003-12-09 10:11:21 51°13.19 2°38.459 29.6 13.7 25 15.3
2003-12-09 10:12:22 51°13.404 2°38.601 26.8 13.7 21 15.5
2003-12-09 10:13:22 51°13.62 2°38.722 24.1 13.7 19 15.6
2003-12-09 10:14:23 51°13.846 2°38.787 13.2 13.5 8 14.5
2003-12-09 10:15:21 51°14.055 2°38.737 345.4 13.1 339 12.3
2003-12-09 10:16:21 51°14.259 2°38.596 343.3 13.4 337 17.4
2003-12-09 10:17:21 51°14.466 2°38.457 343.6 13.5 336 19
2003-12-09 10:18:22 51°14.669 2°38.292 339.6 13.8 333 17.4
2003-12-09 10:19:21 51°14.867 2°38.136 339.9 13.4 334 15.9
2003-12-09 10:20:22 51°15.072 2°37.979 339.5 13.4 335 12.8
2003-12-09 10:21:21 51°15.27 2°37.834 340.5 13.3 336 11.6
2003-12-09 10:22:23 51°15.481 2°37.683 340 13.5 336 11.9
2003-12-09 10:23:21 51°15.678 2°37.546 341.1 13.3 337 11.5
2003-12-09 10:24:21 51°15.881 2°37.401 341.4 13.1 338 11.4
2003-12-09 10:25:23 51°16.093 2°37.243 340.4 13.7 336 17.3
2003-12-09 10:26:22 51°16.299 2°37.091 340.3 14 334 26.3
2003-12-09 10:27:22 51°16.497 2°36.899 329.4 14 323 27.9
2003-12-09 10:28:22 51°16.629 2°36.771 347.6 6 342 27.8
2003-12-09 10:29:22 51°16.651 2°36.763 311 0.7 109 27.8
2003-12-09 10:30:23 51°16.65 2°36.777 311.7 0.4 84 5
2003-12-09 10:31:21 51°16.651 2°36.782 316.1 0.1 93 28.1
2003-12-09 10:32:23 51°16.657 2°36.783 315.2 0.2 351 28.2
2003-12-09 10:33:23 51°16.663 2°36.779 311.6 0.4 325 28.2
2003-12-09 10:34:23 51°16.67 2°36.772 307.1 0.6 328 28.1
2003-12-09 10:35:21 51°16.677 2°36.761 298.3 0.7 313 27.9
2003-12-09 10:36:21 51°16.682 2°36.744 285.3 0.7 298 27.9
2003-12-09 10:37:21 51°16.686 2°36.725 271.4 0.8 286 28
2003-12-09 10:38:22 51°16.688 2°36.705 262.2 0.8 270 28.1
2003-12-09 10:39:21 51°16.688 2°36.686 255.2 0.7 268 28.1
2003-12-09 10:40:22 51°16.686 2°36.667 248.3 0.7 260 28.2
2003-12-09 10:41:22 51°16.684 2°36.652 243.3 0.5 257 28.2
2003-12-09 10:42:21 51°16.681 2°36.64 239.2 0.4 246 28.3
2003-12-09 10:43:22 51°16.678 2°36.631 233.6 0.4 231 28.2
2003-12-09 10:44:21 51°16.673 2°36.624 219.2 0.4 202 28.2
2003-12-09 10:45:21 51°16.666 2°36.621 209.9 0.5 193 28.2
2003-12-09 10:46:23 51°16.641 2°36.605 209.7 3.6 205 28.4
2003-12-09 10:47:21 51°16.566 2°36.474 244.9 9.9 245 30.4
2003-12-09 10:48:21 51°16.545 2°36.198 287.6 10.9 289 28.7
2003-12-09 10:49:22 51°16.668 2°35.966 317.9 12.3 315 28.3
2003-12-09 10:50:23 51°16.829 2°35.711 317 13.7 315 25.4
2003-12-09 10:51:22 51°16.987 2°35.467 317.7 13.3 316 16.7
2003-12-09 10:52:23 51°17.147 2°35.225 317.3 13 317 12.6
2003-12-09 10:53:21 51°17.301 2°35.001 317.6 13.1 316 13.5
2003-12-09 10:54:21 51°17.462 2°34.768 318.2 13 320 10
2003-12-09 10:55:23 51°17.63 2°34.532 317.9 13.4 318 24.5
2003-12-09 10:56:22 51°17.795 2°34.294 318.2 13.6 318 27.9
2003-12-09 10:57:21 51°17.953 2°34.045 309.1 13.5 307 30.1
2003-12-09 10:58:22 51°18.09 2°33.754 307.1 13.5 307 28.8
2003-12-09 10:59:23 51°18.227 2°33.466 307.6 13.4 308 23.3
2003-12-09 11:00:22 51°18.359 2°33.189 308.1 13.4 307 22.3
2003-12-09 11:01:21 51°18.492 2°32.908 307.4 13.6 306 26.6
2003-12-09 11:02:21 51°18.631 2°32.617 308.7 13.8 308 28.6
2003-12-09 11:03:22 51°18.772 2°32.32 308.3 13.8 307 32.8
2003-12-09 11:04:21 51°18.907 2°32.034 308.5 13.6 307 31.8
2003-12-09 11:05:22 51°19.047 2°31.74 308.7 13.7 307 32.2
2003-12-09 11:06:21 51°19.181 2°31.453 308.6 13.8 307 32
2003-12-09 11:07:23 51°19.324 2°31.152 307.7 13.8 307 32
2003-12-09 11:08:22 51°19.464 2°30.875 307.7 13.4 308 28.5
2003-12-09 11:09:21 51°19.601 2°30.606 308 13.2 309 21.7
2003-12-09 11:10:23 51°19.74 2°30.339 308.3 11 310 17.4
2003-12-09 11:11:21 51°19.833 2°30.199 317.9 6.2 330 14.7
2003-12-09 11:12:22 51°19.885 2°30.124 295.4 3.3 313 15.2
2003-12-09 11:13:22 51°19.925 2°30.068 302.9 4.1 318 16.9
2003-12-09 11:14:23 51°19.982 2°30.006 314.2 3.5 339 16.4
2003-12-09 11:15:22 51°20.002 2°30.032 328 1.7 69 16.5
2003-12-09 11:16:21 51°20.016 2°30.07 329.4 1.9 54 13.6
2003-12-09 11:17:21 51°20.039 2°30.101 312.2 1.5 27 14.7
2003-12-09 11:18:22 51°20.058 2°30.111 282.9 0.7 7 15.6
2003-12-09 11:19:21 51°20.062 2°30.115 252 0.2 91 16
2003-12-09 11:20:21 51°20.056 2°30.123 239.7 0.5 154 16.2
2003-12-09 11:21:22 51°20.044 2°30.128 232.3 0.8 168 16.6
2003-12-09 11:22:22 51°20.03 2°30.138 227.2 1 150 16.7
2003-12-09 11:23:21 51°20.017 2°30.152 223.9 0.9 146 16.7
2003-12-09 11:24:21 51°20.003 2°30.17 219.3 1.1 139 16.9
2003-12-09 11:25:23 51°19.989 2°30.19 227 0.9 138 15.8
2003-12-09 11:26:23 51°19.983 2°30.198 259.1 0.2 60 16.6
2003-12-09 11:27:23 51°19.989 2°30.2 266.5 0.4 357 16.7
2003-12-09 11:28:22 51°19.991 2°30.2 254.7 0.1 163 16.6
2003-12-09 11:29:23 51°19.985 2°30.181 255 3 256 15.4
2003-12-09 11:30:22 51°20.039 2°30.103 341.1 6.9 3 14.7
2003-12-09 11:31:23 51°20.144 2°30.259 54.1 10 55 13.6
2003-12-09 11:32:23 51°20.255 2°30.572 62.9 15.4 63 15
2003-12-09 11:33:22 51°20.368 2°30.94 66.4 15.7 64 16.7
2003-12-09 11:34:23 51°20.486 2°31.317 66.3 15.5 63 20.2
2003-12-09 11:35:23 51°20.604 2°31.684 65.4 15.5 63 22.7
2003-12-09 11:36:21 51°20.72 2°32.035 65.9 15.4 62 28.8
2003-12-09 11:37:22 51°20.843 2°32.398 65.6 15.2 62 32.8
2003-12-09 11:38:23 51°20.962 2°32.764 67.8 15.3 63 32.2
2003-12-09 11:39:22 51°21.077 2°33.117 67.7 15.2 63 32.9
2003-12-09 11:40:23 51°21.194 2°33.484 67.5 15.3 62 33.5
2003-12-09 11:41:22 51°21.308 2°33.838 67.1 15.2 63 34.6
2003-12-09 11:42:21 51°21.421 2°34.19 67.1 15.1 63 32.7
2003-12-09 11:43:23 51°21.539 2°34.561 67 15.2 62 35.1
2003-12-09 11:44:23 51°21.654 2°34.918 67.4 15.1 64 32.7
2003-12-09 11:45:22 51°21.766 2°35.272 68 15.2 63 33.3
2003-12-09 11:46:22 51°21.885 2°35.632 67.5 15.5 62 31.9
2003-12-09 11:47:22 51°22.007 2°35.996 66.7 15.5 61 33.2
2003-12-09 11:48:22 51°22.128 2°36.362 67.7 15.6 63 32.8
2003-12-09 11:49:21 51°22.248 2°36.723 67.3 15.6 61 32.4
2003-12-09 11:50:21 51°22.37 2°37.091 66.4 15.5 61 32.4
2003-12-09 11:51:23 51°22.495 2°37.465 67 15.4 62 32
2003-12-09 11:52:23 51°22.615 2°37.827 67.6 15.4 63 33
2003-12-09 11:53:22 51°22.732 2°38.183 66.7 15.4 62 32.9
2003-12-09 11:54:22 51°22.853 2°38.543 66.9 15.4 62 32.8
2003-12-09 11:55:22 51°22.972 2°38.906 67.3 15.5 62 32
2003-12-09 11:56:22 51°23.094 2°39.268 67.9 15.5 62 31.9
2003-12-09 11:57:22 51°23.217 2°39.633 67.2 15.6 62 31.8
2003-12-09 11:58:22 51°23.339 2°39.997 67.7 15.5 62 30.3
2003-12-09 11:59:22 51°23.46 2°40.362 67.6 15.5 62 31.7
2003-12-09 12:00:21 51°23.581 2°40.717 67.9 15.4 62 31
2003-12-09 12:01:22 51°23.705 2°41.084 67.7 15.4 62 29.3
2003-12-09 12:02:23 51°23.829 2°41.449 67.3 15.4 62 31.2
2003-12-09 12:03:23 51°23.952 2°41.809 67.3 15.3 61 31.5
2003-12-09 12:04:22 51°24.071 2°42.165 68.2 15.5 62 26
2003-12-09 12:05:23 51°24.194 2°42.533 67.6 15.5 62 27.1
2003-12-09 12:06:22 51°24.312 2°42.888 66.8 15.3 62 25.7
2003-12-09 12:07:21 51°24.431 2°43.245 67.1 15.3 62 26.1
2003-12-09 12:08:23 51°24.555 2°43.619 67.6 15.4 62 23.9
2003-12-09 12:09:21 51°24.672 2°43.968 67.7 15.3 62 24
2003-12-09 12:10:23 51°24.797 2°44.341 67.5 15.4 61 26.2
2003-12-09 12:11:21 51°24.913 2°44.69 67.6 15.3 62 25.7
2003-12-09 12:12:21 51°25.033 2°45.049 67.5 15.4 62 28.5
2003-12-09 12:13:23 51°25.157 2°45.422 66.8 15.4 61 28.7
2003-12-09 12:14:23 51°25.278 2°45.783 66.6 15.4 62 27.6
2003-12-09 12:15:33 51°25.42 2°46.203 67.5 15.3 61 27.5
2003-12-09 12:16:34 51°25.543 2°46.57 67.7 15.4 63 27.5
2003-12-09 12:17:33 51°25.663 2°46.923 64.5 15.4 59 27.7
2003-12-09 12:18:33 51°25.795 2°47.274 63.9 15.4 59 23.5
2003-12-09 12:19:34 51°25.93 2°47.63 63.9 15.3 59 25.6
2003-12-09 12:20:33 51°26.053 2°47.951 63.1 12.6 59 24.3
2003-12-09 12:21:34 51°26.109 2°48.198 99.9 7.8 91 25.2
2003-12-09 12:22:33 51°26.077 2°48.347 145.6 4.9 124 26.1
2003-12-09 12:23:34 51°26.028 2°48.435 164.9 3.5 135 25.7
2003-12-09 12:24:34 51°26.013 2°48.495 138.9 2.2 92 26
2003-12-09 12:25:34 51°26.018 2°48.55 124.8 2.2 78 25.9
2003-12-09 12:26:33 51°26.028 2°48.611 97.8 2.6 71 26.3
2003-12-09 12:27:33 51°26.05 2°48.676 63.2 2.9 54 26.1
2003-12-09 12:28:34 51°26.094 2°48.734 16 4.8 19 25
2003-12-09 12:29:33 51°26.148 2°48.678 269 3.9 269 26.2
2003-12-09 12:30:33 51°26.095 2°48.578 230.2 5 229 26.3
2003-12-09 12:31:33 51°26.044 2°48.506 217 2.7 205 25.9
2003-12-09 12:32:34 51°26.037 2°48.496 252.7 0.5 307 25.9
2003-12-09 12:33:33 51°26.039 2°48.491 234.2   93 25.9
2003-12-09 12:34:46 51°26.035 2°48.495 226.4 0.2 163 25.5
2003-12-09 12:35:45 51°26.033 2°48.492 236.6 0.2 232 25.2
2003-12-09 12:36:46 51°26.032 2°48.484 241.6 0.4 266 24.3
2003-12-09 12:37:46 51°26.031 2°48.474 239.2 0.4 246 25
2003-12-09 12:38:46 51°26.028 2°48.463 237.1 0.5 247 25.4
2003-12-09 12:39:45 51°26.024 2°48.45 234.8 1.5 232 25.7
2003-12-09 12:40:46 51°26.037 2°48.295 300.6 8.9 317 25.7
2003-12-09 12:41:45 51°26.191 2°48.367 43.5 12.2 45 25
2003-12-09 12:42:46 51°26.303 2°48.714 73.3 15.4 69 25
2003-12-09 12:43:45 51°26.359 2°49.103 90.9 15.3 83 25.6
2003-12-09 12:44:46 51°26.403 2°49.512 86 15.3 81 25.6
2003-12-09 12:45:45 51°26.444 2°49.911 87 15.3 81 24.8
2003-12-09 12:46:46 51°26.487 2°50.323 86.6 15.5 81 25.2
2003-12-09 12:47:46 51°26.526 2°50.728 87 15.4 81 25.8
2003-12-09 12:48:49 51°26.569 2°51.153 84.9 15.4 80 28.9
2003-12-09 12:49:50 51°26.619 2°51.562 84.7 15.4 79 27.5
2003-12-09 12:50:50 51°26.666 2°51.965 84.9 15.5 79 29.8
2003-12-09 12:51:49 51°26.72 2°52.36 83.4 15.5 77 29.3
2003-12-09 12:52:49 51°26.778 2°52.762 83.3 15.5 78 29.9
2003-12-09 12:53:49 51°26.836 2°53.163 82.7 15.5 76 31.2
2003-12-09 12:54:50 51°26.899 2°53.57 83.3 15.4 76 28.2
2003-12-09 12:55:51 51°26.96 2°53.976 82.9 15.5 76 25.8
2003-12-09 12:56:51 51°27.023 2°54.379 83.3 15.7 76 27.3
2003-12-09 12:57:49 51°27.085 2°54.77 83.1 15.6 76 30.3
2003-12-09 12:58:51 51°27.15 2°55.188 83.9 15.5 77 30
2003-12-09 12:59:51 51°27.211 2°55.589 83.4 15.5 76 32
2003-12-09 13:00:51 51°27.273 2°55.99 83.8 15.5 76 30.7
2003-12-09 13:01:50 51°27.334 2°56.384 82.6 15.5 76 29.2
2003-12-09 13:02:50 51°27.396 2°56.786 83.7 15.6 76 22.5
2003-12-09 13:03:49 51°27.458 2°57.184 83.1 15.5 76 28.2
2003-12-09 13:04:50 51°27.52 2°57.59 83 15.4 75 28.1
2003-12-09 13:05:51 51°27.582 2°57.996 82.7 15.4 76 27.3
2003-12-09 13:06:51 51°27.643 2°58.394 83.5 15.4 76 23.4
2003-12-09 13:07:51 51°27.702 2°58.788 83.5 15.2 77 20.2
2003-12-09 13:08:51 51°27.759 2°59.18 83.7 15.1 76 20.1
2003-12-09 13:09:51 51°27.816 2°59.571 83.2 15.1 76 21.2
2003-12-09 13:10:51 51°27.876 2°59.962 82.7 15.1 76 20.2
2003-12-09 13:11:50 51°27.935 3°0.349 82.7 15.2 76 23.6
2003-12-09 13:12:50 51°27.994 3°0.743 83.5 15.2 77 23.9
2003-12-09 13:13:49 51°28.054 3°1.133 82.2 15.4 76 24.9
2003-12-09 13:14:51 51°28.116 3°1.543 82.8 15.4 76 25.7
2003-12-09 13:15:49 51°28.176 3°1.928 83.5 15.4 76 25.9
2003-12-09 13:16:51 51°28.242 3°2.343 82.9 15.6 75 26.1
2003-12-09 13:17:49 51°28.303 3°2.734 83 15.6 75 26
2003-12-09 13:18:49 51°28.367 3°3.124 82.8 12.6 76 25.8
2003-12-09 13:19:49 51°28.366 3°3.342 123.1 5.8 103 25.6
2003-12-09 13:20:49 51°28.304 3°3.42 196.8 5.4 181 25.2
2003-12-09 13:21:50 51°28.275 3°3.421 247.5 0.8 36 25.1
2003-12-09 13:22:51 51°28.289 3°3.431 257.6 0.9 16 25.2
2003-12-09 13:23:50 51°28.299 3°3.429 242.8 0.3 320 25.1
2003-12-09 13:24:51 51°28.296 3°3.426 219.9 0.5 173 25.1
2003-12-09 13:25:51 51°28.282 3°3.431 211.9 1 167 25
2003-12-09 13:26:51 51°28.264 3°3.435 211.3 1.2 177 24.9
2003-12-09 13:27:49 51°28.248 3°3.426 232.9 0.9 242 24.8
2003-12-09 13:28:49 51°28.252 3°3.408 252.8 0.8 316 24.8
2003-12-09 13:29:51 51°28.264 3°3.397 252.8 0.8 341 25
2003-12-09 13:30:50 51°28.275 3°3.395 243.1 0.6 9 25.1
2003-12-09 13:31:49 51°28.282 3°3.402 225.9 0.3 146 25.1
2003-12-09 13:32:50 51°28.254 3°3.446 157.2 4.8 131 24.8
2003-12-09 13:33:50 51°28.169 3°3.649 132.3 13.4 121 23.3
2003-12-09 13:34:51 51°28.045 3°3.98 132 14.3 123 21.2
2003-12-09 13:35:51 51°27.915 3°4.295 132.5 14 123 19.1
2003-12-09 13:36:49 51°27.787 3°4.592 133.4 14.1 125 16.7
2003-12-09 13:37:49 51°27.653 3°4.893 134.7 13.8 126 16
2003-12-09 13:38:50 51°27.515 3°5.202 133.5 14 125 16.9
2003-12-09 13:39:51 51°27.383 3°5.512 130.6 14 121 16.3
2003-12-09 13:40:51 51°27.266 3°5.834 128.6 13.9 120 15.7
2003-12-09 13:41:49 51°27.154 3°6.145 128.9 14 120 15.1
2003-12-09 13:42:51 51°27.033 3°6.476 129.1 13.9 120 14.7
2003-12-09 13:43:49 51°26.921 3°6.784 129.7 13.8 121 14.1
2003-12-09 13:44:50 51°26.801 3°7.107 130.1 14 121 13.7
2003-12-09 13:45:49 51°26.721 3°7.416 117.9 10.6 108 13.3
2003-12-09 13:46:49 51°26.652 3°7.624 132.6 8.2 122 13.1
2003-12-09 13:47:51 51°26.581 3°7.822 121.3 9.6 108 12.7
2003-12-09 13:48:50 51°26.54 3°8.084 115.4 9.5 105 12.7
2003-12-09 13:49:50 51°26.48 3°8.235 162.5 4.5 147 12.9
2003-12-09 13:50:50 51°26.442 3°8.255 197.9 0.6 111 13
2003-12-09 13:51:50 51°26.443 3°8.268 210.9 0.5 81 13.1
2003-12-09 13:52:50 51°26.446 3°8.277 217.8 0.3 50 13
2003-12-09 13:53:51 51°26.451 3°8.284 220.5 0.4 37 13
2003-12-09 13:54:49 51°26.456 3°8.29 221.4 0.4 36 13
2003-12-09 13:55:50 51°26.462 3°8.296 220.9 0.4 30 13.1
2003-12-09 13:56:49 51°26.469 3°8.302 219.3 0.5 32 13
2003-12-09 13:57:49 51°26.471 3°8.305 216 1.3 207 13
2003-12-09 13:58:50 51°26.404 3°8.308 168 7.1 154 12.7
2003-12-09 13:59:49 51°26.345 3°8.534 115.2 11.8 110 12.6
2003-12-09 14:00:49 51°26.248 3°8.846 123.8 13.8 116 11.6
2003-12-09 14:01:49 51°26.157 3°9.188 118.3 14.1 110 11
2003-12-09 14:02:49 51°26.072 3°9.539 119.6 14.1 113 10.5
2003-12-09 14:03:49 51°25.982 3°9.883 119.6 14.1 113 10
2003-12-09 14:04:49 51°25.89 3°10.226 120.7 14.1 113 9.9
2003-12-09 14:05:51 51°25.797 3°10.582 119 13.6 114 9.8
2003-12-09 14:06:49 51°25.707 3°10.914 119.9 14 113 9.7
2003-12-09 14:07:49 51°25.629 3°11.269 114.5 14.3 108 10.1
2003-12-09 14:08:49 51°25.566 3°11.637 108.8 14.4 102 10.9
2003-12-09 14:09:51 51°25.514 3°12.026 109.2 14.3 103 11.5
2003-12-09 14:10:51 51°25.484 3°12.408 96.3 14.6 89 11.6
2003-12-09 14:11:51 51°25.49 3°12.798 95 14.7 88 11.4
2003-12-09 14:12:49 51°25.499 3°13.177 92.5 14.7 86 11.4
2003-12-09 14:13:50 51°25.515 3°13.577 92.8 14.7 87 11.3
2003-12-09 14:14:49 51°25.538 3°13.961 90 14.8 84 10.9
2003-12-09 14:15:49 51°25.565 3°14.351 89.3 14.7 84 10.6
2003-12-09 14:16:50 51°25.591 3°14.747 88.7 14.6 84 10.3
2003-12-09 14:17:49 51°25.615 3°15.131 91.6 14.8 86 10.3
2003-12-09 14:18:49 51°25.641 3°15.519 90.1 14.8 84 10.3
2003-12-09 14:19:49 51°25.665 3°15.909 89.5 14.7 84 10.3
2003-12-09 14:20:49 51°25.7 3°16.297 87.6 14.9 81 10.2
2003-12-09 14:21:49 51°25.738 3°16.685 87.9 14.8 81 10.2
2003-12-09 14:22:49 51°25.778 3°17.073 87 14.7 82 10.3
2003-12-09 14:23:50 51°25.837 3°17.431 69 11.5 62 10.5
2003-12-09 14:24:50 51°25.922 3°17.624 68 6.6 64 10.6
2003-12-09 14:25:50 51°25.924 3°17.748 119 3.7 103 10.7
2003-12-09 14:26:50 51°25.916 3°17.804 148.5 1 80 10.8
2003-12-09 14:27:51 51°25.916 3°17.826 164.9 0.8 101 10.8
2003-12-09 14:28:51 51°25.909 3°17.842 188.2 0.6 144 10.8
2003-12-09 14:29:50 51°25.901 3°17.848 207.6 0.4 163 10.8
2003-12-09 14:30:49 51°25.897 3°17.848 220.7 0.2 207 10.8
2003-12-09 14:31:49 51°25.894 3°17.846 226.5 0.2 217 10.8
2003-12-09 14:32:49 51°25.891 3°17.841 227.1 0.2 221 10.8
2003-12-09 14:33:49 51°25.887 3°17.837 227.1 0.3 245 10.8
2003-12-09 14:34:49 51°25.865 3°17.815 210 3.6 198 10.8
2003-12-09 14:35:49 51°25.765 3°17.795 192.3 8.3 188 11.2
2003-12-09 14:36:50 51°25.591 3°17.75 193.7 11.3 190 11.7
2003-12-09 14:37:49 51°25.39 3°17.695 188.5 13.2 183 11.7
2003-12-09 14:38:51 51°25.163 3°17.741 174.6 13.4 171 13.1
2003-12-09 14:39:49 51°24.948 3°17.742 196.6 13.3 195 14.4
2003-12-09 14:40:51 51°24.757 3°17.556 225.3 13.3 225 17.9
2003-12-09 14:41:50 51°24.618 3°17.284 235 13.6 233 19.5
2003-12-09 14:42:49 51°24.478 3°17.005 233.1 13.7 231 20
2003-12-09 14:43:50 51°24.33 3°16.722 233.2 13.5 230 17.3
2003-12-09 14:44:50 51°24.181 3°16.456 232.9 13.3 228 15.1
2003-12-09 14:45:51 51°24.031 3°16.187 232.1 13.3 228 14.8
2003-12-09 14:46:51 51°23.888 3°15.92 236.9 13.2 234 14.2
2003-12-09 14:47:51 51°23.763 3°15.63 239 13.2 235 13.8
2003-12-09 14:48:51 51°23.636 3°15.342 239.2 13.2 235 12.9
2003-12-09 14:49:51 51°23.51 3°15.056 238.7 13.1 235 12.1
2003-12-09 14:50:51 51°23.384 3°14.771 238.5 13.2 235 11.4
2003-12-09 14:51:49 51°23.261 3°14.495 238.4 13.2 235 11.3
2003-12-09 14:52:51 51°23.129 3°14.2 238.3 13.3 234 11.9
2003-12-09 14:53:49 51°23.004 3°13.923 238.5 13.3 234 12.3
2003-12-09 14:54:51 51°22.871 3°13.626 238.1 13.3 233 12.7
2003-12-09 14:55:50 51°22.73 3°13.37 228.4 11.6 223 13.3
2003-12-09 14:56:51 51°22.621 3°13.241 220.4 5.1 215 14.1
2003-12-09 14:57:51 51°22.602 3°13.21 279.6 0.3 84 14.3
2003-12-09 14:58:51 51°22.603 3°13.208 290.7 0.4 286 14.3
2003-12-09 14:59:49 51°22.606 3°13.196 283 0.6 280 14.3
2003-12-09 15:00:50 51°22.606 3°13.178 263.8 0.7 251 14.3
2003-12-09 15:01:51 51°22.598 3°13.161 239.2 0.9 219 14.3
2003-12-09 15:02:49 51°22.583 3°13.155 214.1 1 182 14.2
2003-12-09 15:03:49 51°22.566 3°13.16 196.9 1 157 14.1
2003-12-09 15:04:49 51°22.551 3°13.173 180.6 1.2 140 14.3
2003-12-09 15:05:50 51°22.532 3°13.194 160.5 2.3 150 14.2
2003-12-09 15:06:49 51°22.463 3°13.159 239 7.4 233 14.3
2003-12-09 15:07:51 51°22.398 3°12.887 261.6 12.7 257 14.8
2003-12-09 15:08:50 51°22.359 3°12.55 265.1 13.3 260 15.5
2003-12-09 15:09:51 51°22.323 3°12.192 265.9 13.4 262 16.5
2003-12-09 15:10:51 51°22.294 3°11.837 262.6 13.5 261 17.1
2003-12-09 15:11:51 51°22.233 3°11.491 251.8 13.8 250 17.5
2003-12-09 15:12:49 51°22.165 3°11.16 252.6 13.4 250 18.5
2003-12-09 15:13:51 51°22.085 3°10.816 254.1 13.4 251 19.6
2003-12-09 15:14:57 51°22.002 3°10.447 253.3 13.4 251 16.5
2003-12-09 15:15:58 51°21.926 3°10.105 253.3 13.4 250 14.9
2003-12-09 15:16:57 51°21.839 3°9.783 249.4 13.4 244 13.8
2003-12-09 15:17:59 51°21.737 3°9.452 247.2 13.4 243 12.9
2003-12-09 15:18:58 51°21.622 3°9.154 240.9 13.4 236 12.2
2003-12-09 15:19:59 51°21.492 3°8.856 238.7 13.4 236 10.9
2003-12-09 15:20:59 51°21.366 3°8.563 238 13.4 235 10
2003-12-09 15:21:58 51°21.24 3°8.277 235.1 13.4 232 9.6
2003-12-09 15:22:59 51°21.101 3°7.997 234.3 13.1 230 9.2
2003-12-09 15:23:59 51°20.964 3°7.722 235.1 13.1 232 9
2003-12-09 15:24:57 51°20.832 3°7.458 235.9 13.1 232 8.9
2003-12-09 15:26:01 51°20.687 3°7.168 236.3 13.1 232 8.7
2003-12-09 15:27:01 51°20.55 3°6.896 235.6 13.2 233 8.8
2003-12-09 15:28:01 51°20.412 3°6.622 232.9 13.2 231 8.7
2003-12-09 15:29:01 51°20.28 3°6.343 235.1 13.2 232 8.7
2003-12-09 15:30:01 51°20.147 3°6.062 238.5 13.3 234 8.7
2003-12-09 15:31:01 51°20.011 3°5.784 236 13.3 233 8.7
2003-12-09 15:32:01 51°19.874 3°5.507 234.6 13.3 231 9
2003-12-09 15:33:01 51°19.739 3°5.228 234 13.3 231 8.9
2003-12-09 15:34:01 51°19.605 3°4.948 233.9 13.3 231 8.9
2003-12-09 15:35:01 51°19.47 3°4.667 234.8 13.3 232 8.9
2003-12-09 15:36:01 51°19.334 3°4.386 234.1 13.3 233 8.9
2003-12-09 15:37:01 51°19.202 3°4.104 233.7 13.2 232 8.8
2003-12-09 15:38:01 51°19.077 3°3.814 240.7 13.2 238 8.9
2003-12-09 15:39:01 51°18.959 3°3.519 241 13.2 239 8.7
2003-12-09 15:40:01 51°18.837 3°3.229 238.5 13.2 237 8.8
2003-12-09 15:41:01 51°18.717 3°2.936 237.6 13.2 236 8.8
2003-12-09 15:42:01 51°18.598 3°2.639 239.1 13.3 236 9.1
2003-12-09 15:43:01 51°18.478 3°2.342 240 13.3 238 8.8
2003-12-09 15:44:01 51°18.354 3°2.05 238 13.4 236 9.3
2003-12-09 15:45:01 51°18.227 3°1.76 236.9 13.4 236 9.5
2003-12-09 15:46:01 51°18.102 3°1.467 237.5 13.3 236 9.7
2003-12-09 15:47:06 51°17.968 3°1.152 237.8 13.3 237 9.7
2003-12-09 15:48:05 51°17.845 3°0.866 237.7 13.3 236 9.7
2003-12-09 15:49:05 51°17.72 3°0.574 236.7 13.3 235 9.8
2003-12-09 15:50:05 51°17.595 3°0.28 236.8 13.4 235 9.9
2003-12-09 15:51:05 51°17.469 2°59.985 237.1 13.4 236 9.9
2003-12-09 15:52:05 51°17.344 2°59.688 237.1 13.5 235 9.8
2003-12-09 15:53:05 51°17.22 2°59.39 237.3 13.5 236 9.9
2003-12-09 15:54:05 51°17.094 2°59.092 237.4 13.5 236 9.9
2003-12-09 15:55:05 51°16.966 2°58.793 236.8 13.7 236 9.9
2003-12-09 15:56:06 51°16.837 2°58.486 237.3 13.7 236 9.8
2003-12-09 15:57:13 51°16.695 2°58.149 237.3 13.7 237 9.8
2003-12-09 15:58:13 51°16.568 2°57.847 237.1 13.8 236 9.7
2003-12-09 15:59:13 51°16.44 2°57.541 237.8 13.8 237 9.7
2003-12-09 16:00:13 51°16.313 2°57.235 239 13.8 238 9.5
2003-12-09 16:01:17 51°16.176 2°56.911 238 13.8 237 9.2
2003-12-09 16:02:17 51°16.049 2°56.611 237.6 13.6 236 9
2003-12-09 16:03:24 51°15.907 2°56.28 237.3 13.5 236 8.9
2003-12-09 16:04:25 51°15.783 2°55.988 237.4 12.5 235 9
2003-12-09 16:05:25 51°15.671 2°55.726 236.9 11.9 236 9
2003-12-09 16:06:25 51°15.554 2°55.451 236.6 12.9 236 8.9
2003-12-09 16:07:25 51°15.434 2°55.161 237.7 13.1 236 8.8
2003-12-09 16:08:32 51°15.281 2°54.862 219.8 13 214 8.6
2003-12-09 16:09:30 51°15.084 2°54.771 188.9 12.5 188 8.7
2003-12-09 16:10:31 51°14.885 2°54.746 182 11.5 181 9.7
2003-12-09 16:11:32 51°14.694 2°54.777 170.6 11.4 169 9.9
2003-12-09 16:12:29 51°14.521 2°54.854 157.6 11.3 156 10.2
2003-12-09 16:13:32 51°14.37 2°55.035 131.6 10.7 131 11.1
2003-12-09 16:14:32 51°14.289 2°55.216 127 6.5 126 11